Terminal Aerodrome Forecast
Issued by NWS

Home | Current Version | Previous Version | Text Only | Print | Product List | Glossary On
Versions: 1 2 3 4 5 6 7 8 9 10 11 12 13 14 15 16 17 18 19 20
000
FTUS44 KLIX 252340
TAFGPT
TAF
KGPT 252340Z 2600/2624 29005KT P6SM FEW040 SCT080 BKN150
     FM260500 34004KT P6SM FEW050 SCT110
     FM261800 33006KT P6SM SCT040=

USA.gov is the U.S. government's official web portal to all federal, state and local government web resources and services.